createdAt,value
2018-05-31T00:01:09.941Z,99.20
2018-05-31T00:03:40.443Z,99.20
2018-05-31T00:06:09.735Z,99.10
2018-05-31T00:08:39.008Z,99.10
2018-05-31T00:11:08.298Z,99.90
2018-05-31T00:13:37.586Z,99.30
2018-05-31T00:16:07.627Z,99.60
2018-05-31T00:18:37.710Z,99.80
2018-05-31T00:21:06.995Z,99.90
2018-05-31T00:23:36.367Z,98.90
2018-05-31T00:26:05.671Z,99.90
2018-05-31T00:28:34.930Z,99.50
2018-05-31T00:31:04.965Z,99.10
2018-05-31T00:33:34.980Z,99.20
2018-05-31T00:36:04.998Z,99.20
2018-05-31T00:38:34.314Z,99.20
2018-05-31T00:41:03.634Z,99.30
2018-05-31T00:43:32.922Z,99.50
2018-05-31T00:46:02.214Z,99.10
2018-05-31T00:48:32.259Z,98.80
2018-05-31T00:51:01.554Z,98.90
2018-05-31T00:53:30.814Z,99.60
2018-05-31T00:56:16.697Z,99.20
2018-05-31T00:58:45.948Z,99.20
2018-05-31T01:01:15.224Z,99.90
2018-05-31T01:03:44.526Z,99.40
2018-05-31T01:06:18.135Z,99.50
2018-05-31T01:08:47.419Z,99.60
2018-05-31T01:11:16.681Z,99.70
2018-05-31T01:13:47.509Z,99.90
2018-05-31T01:16:18.298Z,99.90
2018-05-31T01:18:47.631Z,99.90
2018-05-31T01:21:16.912Z,99.90
2018-05-31T01:23:46.219Z,99.90
2018-05-31T01:26:17.018Z,99.90
2018-05-31T01:28:47.050Z,99.90
2018-05-31T01:31:16.326Z,99.90
2018-05-31T01:33:46.364Z,99.90
2018-05-31T01:36:15.663Z,99.90
2018-05-31T01:38:45.001Z,99.90
2018-05-31T01:41:14.278Z,99.90
2018-05-31T01:43:43.548Z,99.90
2018-05-31T01:46:13.610Z,99.90
2018-05-31T01:48:42.937Z,99.90
2018-05-31T01:51:12.186Z,99.90
2018-05-31T01:53:41.457Z,99.90
2018-05-31T01:56:10.775Z,99.90
2018-05-31T01:58:40.829Z,99.90
2018-05-31T02:01:10.105Z,99.90
2018-05-31T02:03:39.413Z,99.90
2018-05-31T02:06:08.709Z,99.90
2018-05-31T02:08:38.010Z,99.90
2018-05-31T02:11:07.262Z,99.90
2018-05-31T02:13:38.115Z,99.90
2018-05-31T02:16:08.165Z,99.90
2018-05-31T02:18:37.464Z,99.90
2018-05-31T02:21:06.847Z,99.90
2018-05-31T02:23:36.090Z,99.80
2018-05-31T02:26:06.816Z,99.90
2018-05-31T02:28:36.122Z,99.90
2018-05-31T02:31:05.411Z,99.50
2018-05-31T02:33:34.707Z,99.40
2018-05-31T02:36:04.050Z,99.50
2018-05-31T02:38:33.347Z,99.50
2018-05-31T02:41:02.676Z,99.40
2018-05-31T02:43:32.812Z,99.50
2018-05-31T02:46:02.073Z,99.50
2018-05-31T02:48:31.341Z,99.60
2018-05-31T02:51:00.619Z,99.50
2018-05-31T02:53:29.922Z,99.40
2018-05-31T02:55:59.230Z,99.50
2018-05-31T02:58:29.320Z,99.70
2018-05-31T03:00:59.357Z,99.50
2018-05-31T03:03:28.608Z,99.50
2018-05-31T03:05:59.389Z,99.50
2018-05-31T03:08:28.682Z,99.50
2018-05-31T03:10:58.729Z,99.50
2018-05-31T03:13:28.044Z,99.50
2018-05-31T03:15:57.305Z,99.50
2018-05-31T03:18:26.575Z,99.60
2018-05-31T03:20:55.898Z,99.50
2018-05-31T03:23:25.941Z,99.60
2018-05-31T03:25:55.243Z,99.60
2018-05-31T03:28:28.481Z,99.80
2018-05-31T03:30:59.410Z,99.90
2018-05-31T03:33:30.175Z,99.90
2018-05-31T03:36:00.219Z,99.90
2018-05-31T03:38:29.539Z,99.90
2018-05-31T03:43:35.175Z,99.90
2018-05-31T03:46:05.191Z,99.90
2018-05-31T03:48:35.219Z,99.90
2018-05-31T03:51:04.560Z,99.90
2018-05-31T03:53:33.840Z,99.90
2018-05-31T03:56:03.119Z,99.90
2018-05-31T03:58:32.620Z,99.90
2018-05-31T04:01:01.917Z,99.90
2018-05-31T04:03:31.237Z,99.90
2018-05-31T04:06:00.540Z,99.90
2018-05-31T04:08:29.826Z,99.70
2018-05-31T04:10:59.116Z,99.30
2018-05-31T04:13:29.138Z,98.30
2018-05-31T04:15:59.341Z,98.40
2018-05-31T04:18:29.403Z,98.00
2018-05-31T04:20:58.717Z,98.00
2018-05-31T04:23:28.004Z,97.70
2018-05-31T04:25:57.308Z,97.60
2018-05-31T04:28:26.599Z,97.10
2018-05-31T04:30:55.893Z,96.70
2018-05-31T04:33:25.169Z,96.70
2018-05-31T04:35:55.305Z,96.70
2018-05-31T04:38:24.553Z,96.60
2018-05-31T04:40:59.117Z,95.90
2018-05-31T04:43:29.163Z,95.90
2018-05-31T04:45:58.452Z,96.20
2018-05-31T04:48:27.732Z,95.80
2018-05-31T04:50:57.803Z,95.70
2018-05-31T04:53:27.874Z,95.40
2018-05-31T04:55:57.891Z,95.90
2018-05-31T04:58:27.921Z,96.00
2018-05-31T05:00:57.220Z,96.00
2018-05-31T05:03:26.502Z,95.60
2018-05-31T05:05:56.530Z,95.80
2018-05-31T05:08:25.837Z,95.80
2018-05-31T05:10:55.889Z,95.40
2018-05-31T05:13:25.192Z,94.90
2018-05-31T05:15:54.587Z,94.80
2018-05-31T05:18:23.855Z,94.20
2018-05-31T05:20:53.141Z,94.00
2018-05-31T05:23:22.414Z,94.20
2018-05-31T05:25:51.670Z,94.30
2018-05-31T05:28:21.067Z,93.60
2018-05-31T05:30:50.324Z,93.00
2018-05-31T05:33:19.584Z,92.60
2018-05-31T05:35:48.893Z,90.40
2018-05-31T05:38:18.191Z,82.80
2018-05-31T05:40:47.445Z,78.60
2018-05-31T05:43:17.525Z,65.50
2018-05-31T05:45:46.885Z,65.30
2018-05-31T05:48:16.227Z,61.30
2018-05-31T05:50:45.463Z,57.40
2018-05-31T05:53:15.555Z,54.70
2018-05-31T05:55:44.798Z,54.70
2018-05-31T05:58:14.072Z,52.00
2018-05-31T06:00:44.111Z,48.80
2018-05-31T06:03:13.388Z,48.80
2018-05-31T06:05:43.426Z,44.70
2018-05-31T06:08:12.699Z,44.60
2018-05-31T06:10:43.140Z,44.80
2018-05-31T06:13:13.192Z,43.80
2018-05-31T06:15:42.477Z,43.70
2018-05-31T06:18:11.762Z,42.10
2018-05-31T06:20:41.829Z,41.80
2018-05-31T06:23:11.095Z,41.80
2018-05-31T06:25:40.402Z,42.70
2018-05-31T06:28:09.723Z,42.50
2018-05-31T06:30:39.035Z,42.10
2018-05-31T06:33:08.284Z,41.20
2018-05-31T06:35:37.566Z,40.60
2018-05-31T06:38:06.844Z,39.90
2018-05-31T06:40:36.145Z,39.80
2018-05-31T06:43:05.396Z,40.20
2018-05-31T06:45:34.629Z,41.90
2018-05-31T06:48:03.974Z,43.40
2018-05-31T06:50:34.421Z,47.00
2018-05-31T06:53:03.760Z,46.90
2018-05-31T06:55:33.197Z,46.10
2018-05-31T06:58:02.529Z,45.60
2018-05-31T07:00:31.815Z,44.30
2018-05-31T07:03:01.842Z,45.00
2018-05-31T07:05:31.254Z,44.40
2018-05-31T07:08:00.475Z,44.90
2018-05-31T07:10:31.175Z,47.60
2018-05-31T07:13:00.468Z,47.50
2018-05-31T07:15:29.790Z,50.30
2018-05-31T07:17:59.101Z,51.80
2018-05-31T07:20:28.361Z,53.80
2018-05-31T07:22:58.507Z,55.10
2018-05-31T07:25:27.781Z,55.10
2018-05-31T07:27:57.887Z,55.20
2018-05-31T07:30:27.150Z,55.20
2018-05-31T07:32:56.460Z,53.60
2018-05-31T07:35:25.907Z,54.00
2018-05-31T07:37:55.933Z,54.50
2018-05-31T07:40:25.955Z,53.90
2018-05-31T07:42:55.362Z,54.50
2018-05-31T07:45:25.442Z,51.00
2018-05-31T07:47:54.790Z,50.90
2018-05-31T07:50:24.098Z,50.80
2018-05-31T07:52:53.393Z,50.20
2018-05-31T07:55:22.688Z,47.20
2018-05-31T07:57:52.764Z,42.30
2018-05-31T08:00:22.054Z,42.20
2018-05-31T08:02:51.497Z,42.20
2018-05-31T08:05:24.813Z,43.40
2018-05-31T08:07:54.103Z,43.10
2018-05-31T08:10:23.396Z,40.90
2018-05-31T08:12:53.595Z,36.10
2018-05-31T08:15:23.654Z,35.70
2018-05-31T08:17:52.946Z,35.70
2018-05-31T08:20:22.258Z,35.20
2018-05-31T08:22:51.548Z,35.10
2018-05-31T08:25:20.940Z,35.70
2018-05-31T08:27:50.445Z,35.20
2018-05-31T08:30:20.515Z,37.10
2018-05-31T08:32:49.859Z,37.10
2018-05-31T08:35:19.158Z,37.90
2018-05-31T08:37:49.192Z,40.90
2018-05-31T08:40:18.485Z,40.90
2018-05-31T08:42:47.773Z,42.90
2018-05-31T08:45:17.057Z,42.10
2018-05-31T08:47:46.498Z,41.00
2018-05-31T08:50:15.790Z,35.70
2018-05-31T08:52:45.212Z,35.50
2018-05-31T08:55:15.315Z,36.70
2018-05-31T08:57:45.022Z,36.70
2018-05-31T09:00:15.052Z,36.80
2018-05-31T09:02:44.335Z,36.70
2018-05-31T09:05:14.358Z,36.30
2018-05-31T09:07:43.672Z,36.30
2018-05-31T09:10:12.980Z,36.40
2018-05-31T09:12:42.256Z,35.40
2018-05-31T09:15:12.324Z,33.90
2018-05-31T09:17:46.797Z,34.00
2018-05-31T09:20:16.304Z,33.00
2018-05-31T09:22:45.944Z,33.60
2018-05-31T09:25:15.209Z,33.30
2018-05-31T09:27:44.546Z,32.60
2018-05-31T09:30:13.897Z,31.30
2018-05-31T09:32:44.464Z,32.30
2018-05-31T09:35:13.832Z,32.30
2018-05-31T09:37:44.416Z,32.60
2018-05-31T09:40:13.675Z,32.50
2018-05-31T09:42:43.978Z,30.90
2018-05-31T09:45:14.027Z,32.20
2018-05-31T09:47:43.349Z,32.10
2018-05-31T09:50:13.020Z,33.70
2018-05-31T09:52:42.390Z,32.40
2018-05-31T09:55:11.904Z,32.90
2018-05-31T09:57:41.211Z,31.40
2018-05-31T10:00:10.787Z,30.90
2018-05-31T10:02:41.054Z,33.30
2018-05-31T10:05:11.139Z,33.40
2018-05-31T10:07:40.598Z,33.40
2018-05-31T10:10:09.869Z,35.10
2018-05-31T10:12:39.191Z,31.90
2018-05-31T10:15:08.470Z,32.90
2018-05-31T10:17:37.791Z,32.60
2018-05-31T10:20:07.096Z,33.20
2018-05-31T10:22:36.468Z,33.10
2018-05-31T10:25:06.555Z,34.60
2018-05-31T10:27:35.855Z,34.50
2018-05-31T10:30:05.223Z,33.00
2018-05-31T10:32:34.554Z,33.10
2018-05-31T10:35:03.881Z,34.10
2018-05-31T10:37:33.185Z,33.70
2018-05-31T10:40:03.332Z,34.80
2018-05-31T10:42:32.611Z,35.20
2018-05-31T10:45:01.868Z,36.40
2018-05-31T10:47:31.289Z,36.30
2018-05-31T10:50:00.592Z,36.10
2018-05-31T10:52:29.907Z,36.90
2018-05-31T10:54:59.189Z,36.30
2018-05-31T10:57:28.443Z,36.70
2018-05-31T10:59:57.720Z,38.10
2018-05-31T11:02:27.013Z,37.20
2018-05-31T11:04:56.283Z,38.20
2018-05-31T11:07:25.546Z,38.10
2018-05-31T11:09:54.866Z,41.40
2018-05-31T11:12:24.139Z,43.00
2018-05-31T11:14:53.466Z,43.40
2018-05-31T11:17:22.742Z,45.30
2018-05-31T11:19:52.063Z,47.00
2018-05-31T11:22:21.548Z,48.30
2018-05-31T11:24:51.561Z,51.60
2018-05-31T11:27:20.862Z,51.60
2018-05-31T11:29:50.149Z,52.90
2018-05-31T11:32:20.197Z,49.60
2018-05-31T11:34:49.499Z,49.60
2018-05-31T11:37:18.786Z,49.80
2018-05-31T11:39:48.049Z,50.10
2018-05-31T11:42:17.487Z,53.10
2018-05-31T11:44:46.743Z,50.40
2018-05-31T11:47:16.013Z,53.40
2018-05-31T11:49:45.318Z,50.80
2018-05-31T11:52:15.333Z,52.90
2018-05-31T11:54:44.602Z,52.90
2018-05-31T11:57:13.873Z,52.60
2018-05-31T11:59:43.134Z,54.10
2018-05-31T12:02:12.431Z,51.50
2018-05-31T12:04:41.719Z,54.00
2018-05-31T12:07:11.025Z,53.10
2018-05-31T12:09:40.323Z,52.50
2018-05-31T12:12:09.620Z,52.40
2018-05-31T12:14:39.625Z,50.80
2018-05-31T12:17:08.908Z,50.80
2018-05-31T12:19:38.969Z,51.30
2018-05-31T12:22:08.285Z,51.30
2018-05-31T12:24:37.534Z,51.30
2018-05-31T12:27:07.565Z,49.30
2018-05-31T12:29:36.838Z,49.30
2018-05-31T12:32:06.188Z,49.10
2018-05-31T12:34:35.423Z,49.20
2018-05-31T12:37:05.494Z,50.20
2018-05-31T12:39:34.878Z,50.20
2018-05-31T12:42:04.256Z,49.90
2018-05-31T12:44:33.566Z,50.70
2018-05-31T12:47:03.865Z,52.90
2018-05-31T12:49:33.110Z,53.00
2018-05-31T12:52:02.470Z,53.20
2018-05-31T12:54:31.756Z,53.30
2018-05-31T12:57:01.008Z,52.90
2018-05-31T12:59:30.284Z,53.00
2018-05-31T13:02:00.324Z,51.60
2018-05-31T13:04:29.628Z,51.60
2018-05-31T13:06:59.702Z,52.70
2018-05-31T13:09:29.001Z,52.00
2018-05-31T13:11:59.221Z,53.00
2018-05-31T13:14:28.538Z,52.50
2018-05-31T13:16:57.877Z,53.90
2018-05-31T13:19:27.227Z,53.00
2018-05-31T13:21:56.478Z,53.80
2018-05-31T13:24:25.763Z,54.40
2018-05-31T13:26:55.802Z,52.80
2018-05-31T13:29:25.061Z,52.80
2018-05-31T13:31:55.095Z,52.90
2018-05-31T13:34:24.397Z,52.90
2018-05-31T13:36:54.496Z,53.60
2018-05-31T13:39:24.611Z,53.00
2018-05-31T13:41:53.886Z,53.00
2018-05-31T13:44:23.153Z,52.60
2018-05-31T13:46:52.436Z,51.80
2018-05-31T13:49:22.498Z,51.30
2018-05-31T13:51:51.781Z,51.30
2018-05-31T13:54:21.249Z,52.30
2018-05-31T13:56:50.507Z,51.30
2018-05-31T13:59:19.849Z,51.10
2018-05-31T14:01:49.139Z,50.70
2018-05-31T14:04:18.530Z,51.60
2018-05-31T14:06:47.769Z,51.20
2018-05-31T14:09:17.099Z,52.30
2018-05-31T14:11:46.362Z,50.50
2018-05-31T14:14:16.437Z,50.80
2018-05-31T14:16:45.773Z,51.30
2018-05-31T14:19:15.053Z,51.60
2018-05-31T14:21:44.322Z,52.40
2018-05-31T14:24:13.608Z,51.10
2018-05-31T14:26:42.899Z,52.80
2018-05-31T14:29:12.182Z,54.00
2018-05-31T14:31:41.476Z,52.50
2018-05-31T14:34:11.513Z,52.70
2018-05-31T14:36:40.871Z,52.70
2018-05-31T14:39:10.122Z,53.90
2018-05-31T14:41:39.422Z,53.00
2018-05-31T14:44:08.722Z,52.60
2018-05-31T14:46:37.991Z,52.90
2018-05-31T14:49:07.320Z,51.80
2018-05-31T14:51:38.055Z,50.30
2018-05-31T14:54:07.357Z,50.80
2018-05-31T14:56:36.649Z,51.80
2018-05-31T14:59:06.698Z,52.40
2018-05-31T15:01:36.258Z,51.80
2018-05-31T15:04:05.751Z,52.40
2018-05-31T15:06:35.000Z,52.40
2018-05-31T15:09:04.296Z,51.90
2018-05-31T15:11:33.561Z,52.10
2018-05-31T15:14:03.627Z,52.40
2018-05-31T15:16:33.234Z,52.30
2018-05-31T15:19:02.600Z,52.50
2018-05-31T15:21:31.875Z,52.20
2018-05-31T15:24:01.173Z,52.00
2018-05-31T15:26:30.454Z,52.30
2018-05-31T15:29:00.822Z,52.80
2018-05-31T15:31:30.485Z,52.00
2018-05-31T15:34:00.775Z,51.10
2018-05-31T15:36:30.199Z,51.10
2018-05-31T15:38:59.487Z,51.40
2018-05-31T15:41:28.769Z,51.60
2018-05-31T15:43:58.085Z,52.10
2018-05-31T15:46:27.345Z,51.70
2018-05-31T15:48:57.407Z,51.60
2018-05-31T15:51:26.744Z,51.60
2018-05-31T15:53:55.999Z,51.90
2018-05-31T15:56:25.281Z,52.40
2018-05-31T15:58:54.553Z,52.40
2018-05-31T16:01:23.828Z,53.30
2018-05-31T16:03:53.114Z,52.10
2018-05-31T16:06:22.450Z,52.00
2018-05-31T16:08:51.803Z,51.90
2018-05-31T16:11:21.614Z,51.70
2018-05-31T16:13:50.869Z,52.30
2018-05-31T16:16:20.320Z,52.00
2018-05-31T16:18:49.711Z,53.50
2018-05-31T16:21:19.717Z,53.70
2018-05-31T16:23:48.988Z,53.80
2018-05-31T16:26:18.507Z,53.50
2018-05-31T16:28:48.710Z,53.00
2018-05-31T16:31:17.993Z,53.00
2018-05-31T16:33:47.609Z,52.60
2018-05-31T16:36:17.183Z,52.40
2018-05-31T16:38:46.655Z,53.80
2018-05-31T16:41:16.992Z,54.00
2018-05-31T16:43:47.106Z,54.10
2018-05-31T16:46:17.144Z,54.80
2018-05-31T16:48:46.447Z,54.80
2018-05-31T16:51:15.698Z,55.50
2018-05-31T16:53:44.953Z,55.40
2018-05-31T16:56:14.210Z,55.30
2018-05-31T16:58:44.319Z,54.40
2018-05-31T17:01:13.585Z,54.40
2018-05-31T17:03:42.858Z,56.10
2018-05-31T17:06:12.154Z,55.60
2018-05-31T17:08:41.408Z,54.70
2018-05-31T17:11:10.830Z,55.10
2018-05-31T17:13:40.856Z,56.00
2018-05-31T17:16:10.143Z,56.00
2018-05-31T17:18:39.631Z,55.30
2018-05-31T17:21:08.898Z,55.70
2018-05-31T17:23:38.180Z,55.10
2018-05-31T17:26:07.442Z,56.90
2018-05-31T17:28:36.667Z,57.40
2018-05-31T17:31:07.418Z,58.20
2018-05-31T17:33:36.683Z,58.10
2018-05-31T17:36:06.717Z,58.10
2018-05-31T17:38:36.744Z,58.30
2018-05-31T17:41:06.004Z,58.30
2018-05-31T17:43:36.055Z,61.00
2018-05-31T17:46:06.062Z,60.90
2018-05-31T17:48:35.905Z,60.60
2018-05-31T17:51:05.205Z,60.10
2018-05-31T17:53:34.471Z,60.70
2018-05-31T17:56:04.497Z,62.10
2018-05-31T17:58:34.516Z,62.30
2018-05-31T18:01:03.819Z,62.20
2018-05-31T18:03:33.912Z,62.60
2018-05-31T18:06:03.184Z,62.60
2018-05-31T18:08:32.643Z,63.80
2018-05-31T18:11:02.732Z,64.30
2018-05-31T18:13:32.860Z,64.30
2018-05-31T18:16:02.899Z,67.60
2018-05-31T18:18:32.934Z,68.60
2018-05-31T18:21:02.186Z,68.60
2018-05-31T18:23:32.247Z,69.80
2018-05-31T18:26:01.517Z,69.70
2018-05-31T18:28:31.750Z,71.80
2018-05-31T18:31:01.055Z,71.80
2018-05-31T18:33:31.099Z,73.20
2018-05-31T18:36:00.391Z,73.20
2018-05-31T18:38:29.693Z,75.00
2018-05-31T18:40:59.195Z,76.90
2018-05-31T18:43:28.457Z,78.20
2018-05-31T18:45:58.528Z,79.30
2018-05-31T18:48:27.867Z,79.20
2018-05-31T18:50:57.497Z,80.80
2018-05-31T18:53:31.178Z,82.20
2018-05-31T18:56:00.433Z,83.30
2018-05-31T18:58:29.712Z,83.90
2018-05-31T19:00:59.006Z,85.20
2018-05-31T19:03:29.052Z,89.10
2018-05-31T19:05:58.338Z,89.10
2018-05-31T19:08:28.438Z,90.70
2018-05-31T19:10:58.502Z,91.30
2018-05-31T19:13:33.289Z,91.30
2018-05-31T19:16:02.547Z,92.30
2018-05-31T19:18:37.323Z,92.70
2018-05-31T19:21:06.620Z,92.80
2018-05-31T19:23:36.668Z,93.20
2018-05-31T19:26:05.956Z,93.20
2018-05-31T19:28:35.253Z,93.90
2018-05-31T19:31:11.017Z,94.40
2018-05-31T19:33:40.344Z,95.20
2018-05-31T19:36:15.159Z,95.70
2018-05-31T19:38:44.443Z,95.90
2018-05-31T19:41:13.741Z,96.30
2018-05-31T19:43:49.665Z,97.00
2018-05-31T19:46:18.932Z,97.00
2018-05-31T19:48:48.243Z,97.20
2018-05-31T19:51:23.883Z,97.00
2018-05-31T19:53:53.197Z,97.00
2018-05-31T19:56:22.510Z,97.90
2018-05-31T19:58:58.641Z,98.50
2018-05-31T20:01:33.428Z,98.20
2018-05-31T20:04:02.692Z,98.10
2018-05-31T20:06:32.062Z,98.10
2018-05-31T20:09:01.391Z,98.20
2018-05-31T20:11:31.325Z,98.00
2018-05-31T20:14:00.586Z,98.30
2018-05-31T20:16:29.897Z,98.50
2018-05-31T20:18:59.450Z,98.70
2018-05-31T20:21:28.859Z,98.80
2018-05-31T20:23:58.121Z,99.10
2018-05-31T20:26:27.421Z,99.20
2018-05-31T20:28:57.551Z,99.70
2018-05-31T20:31:27.593Z,99.80
2018-05-31T20:33:58.515Z,99.90
2018-05-31T20:36:28.573Z,99.90
2018-05-31T20:38:57.893Z,99.90
2018-05-31T20:41:27.168Z,99.90
2018-05-31T20:43:56.450Z,99.90
2018-05-31T20:46:26.483Z,99.90
2018-05-31T20:48:55.819Z,99.90
2018-05-31T20:51:28.684Z,99.90
2018-05-31T20:53:58.629Z,99.90
2018-05-31T20:56:27.911Z,99.90
2018-05-31T20:58:57.274Z,99.90
2018-05-31T21:01:26.530Z,99.90
2018-05-31T21:03:55.794Z,99.90
2018-05-31T21:06:25.161Z,99.90
2018-05-31T21:08:54.851Z,99.90
2018-05-31T21:11:24.123Z,99.90
2018-05-31T21:13:53.451Z,99.90
2018-05-31T21:16:24.237Z,99.90
2018-05-31T21:18:53.522Z,99.90
2018-05-31T21:21:22.916Z,99.90
2018-05-31T21:23:53.049Z,99.90
2018-05-31T21:26:22.337Z,99.90
2018-05-31T21:28:52.422Z,99.90
2018-05-31T21:31:23.821Z,99.90
2018-05-31T21:33:53.244Z,99.90
2018-05-31T21:36:22.584Z,99.90
2018-05-31T21:38:51.963Z,99.90
2018-05-31T21:41:21.218Z,99.90
2018-05-31T21:43:51.246Z,99.90
2018-05-31T21:46:20.508Z,99.90
2018-05-31T21:48:51.073Z,99.90
2018-05-31T21:51:20.414Z,99.90
2018-05-31T21:53:49.688Z,99.90
2018-05-31T21:56:18.961Z,99.90
2018-05-31T21:58:48.242Z,99.90
2018-05-31T22:01:18.321Z,99.90
2018-05-31T22:03:47.595Z,99.90
2018-05-31T22:06:16.878Z,99.90
2018-05-31T22:08:46.894Z,99.90
2018-05-31T22:11:17.151Z,99.90
2018-05-31T22:13:46.435Z,99.90
2018-05-31T22:16:15.738Z,99.90
2018-05-31T22:18:45.737Z,99.90
2018-05-31T22:21:15.029Z,99.90
2018-05-31T22:23:45.151Z,99.90
2018-05-31T22:26:15.232Z,99.90
2018-05-31T22:28:44.505Z,99.90
2018-05-31T22:31:13.750Z,99.90
2018-05-31T22:33:43.039Z,99.90
2018-05-31T22:36:13.114Z,99.90
2018-05-31T22:38:42.378Z,99.90
2018-05-31T22:41:12.517Z,99.90
2018-05-31T22:43:41.777Z,99.90
2018-05-31T22:46:11.093Z,99.90
2018-05-31T22:48:41.156Z,99.90
2018-05-31T22:51:10.427Z,99.90
2018-05-31T22:53:39.728Z,99.90
2018-05-31T22:56:09.014Z,99.90
2018-05-31T22:58:39.063Z,99.90
2018-05-31T23:01:08.397Z,99.90
2018-05-31T23:03:37.660Z,99.90
2018-05-31T23:06:06.946Z,99.90
2018-05-31T23:08:42.864Z,99.90
2018-05-31T23:11:12.138Z,99.90
2018-05-31T23:13:41.442Z,99.90
2018-05-31T23:16:10.725Z,99.90
2018-05-31T23:18:41.010Z,99.90
2018-05-31T23:21:11.104Z,99.90
2018-05-31T23:23:40.388Z,99.90
2018-05-31T23:26:09.682Z,99.90
2018-05-31T23:28:39.066Z,99.90
2018-05-31T23:31:08.342Z,99.90
2018-05-31T23:33:38.397Z,99.90
2018-05-31T23:36:07.620Z,99.90
2018-05-31T23:38:37.664Z,99.90
2018-05-31T23:41:07.922Z,99.90
2018-05-31T23:43:37.183Z,99.90
2018-05-31T23:46:07.236Z,99.90
2018-05-31T23:48:36.615Z,99.90
2018-05-31T23:51:06.663Z,99.90
2018-05-31T23:53:35.933Z,99.90
2018-05-31T23:56:05.994Z,99.90
2018-05-31T23:58:35.354Z,99.90
